Malabo, Equatorial Guinea
Current Conditions -  °F | °C
As of 9:00 PM on Thursday 18 Dec 2014 (Local Time) from FGSL Reporting Station
Haze Haze  
Wind Chill: 81°   Ceiling: Unl
Heat Index: 87°   Visibility: 2mi
Dew Point: 77°   Wind: 5mph
Humidity: 89%   Direction: 240°WSW
Pressure: 29.88"   Gusts: NA
Location:  3.74°N, 8.79°E
Report Text: FGSL 182000Z 24004KT 3200 BR FEW010 27/25 Q1012 NOSIG
Loading
Personal Weather Stations






























Interactive Weather Map New forecast layout! Learn more

10-Day Weather Forecast

Advertisements
Track Severe Weather on mobile